Latest Coastal Weather Observations for Rosslyn Bay Harbour

IDQ60701

Issued at 1:12 pm EST Tuesday 3 March 2015 (issued every 10 minutes, with the page automatically refreshed every 10 minutes)

About coastal observations | Map of coastal stations | Coastal observations for QLD | Marine services | Other Formats
Station Details ID: 033208 Name: ROSSLYN BAY NTC AWS Lat: -23.16 Lon: 150.79 Height: 0.0 m
Data from the previous 72 hours. | See also: Recent months for locations in Queensland
Date/Time
EST
Temp

°C
Wind Pressure Rain
since 9am
mm
Weather Cloud Vis
km
Sea
Height
m
Swell
Dir
 
Speed
knots
Gust
knots
hPa Trend Height
m
Period
s
Dir
03/01:00pm 27.7 S 10 15 1012.2 - - - - - - - - -
03/12:30pm 27.5 S 10 17 1012.6 - - - - - - - - -
03/12:00pm 27.5 S 11 18 1013.0 - - - - - - - - -
03/11:30am 27.3 S 10 19 1013.4 - - - - - - - - -
03/11:00am 27.1 S 10 18 1013.5 - - - - - - - - -
03/10:30am 27.1 S 10 17 1013.8 - - - - - - - - -
03/10:00am 27.1 S 10 20 1013.9 - - - - - - - - -
03/09:30am 27.0 S 8 17 1013.8 - - - - - - - - -
03/09:00am 26.4 S 7 13 1013.7 - - - - - - - - -
03/08:30am 26.1 S 9 15 1013.4 - - - - - - - - -
03/08:00am 26.3 S 9 15 1013.2 - - - - - - - - -
03/07:30am 26.1 S 7 16 1012.8 - - - - - - - - -
03/07:00am 25.9 S 9 16 1012.5 - - - - - - - - -
03/06:30am 26.0 S 8 15 1012.3 - - - - - - - - -
03/06:00am 26.0 S 8 16 1012.1 - - - - - - - - -
03/05:30am 26.0 S 8 14 1011.9 - - - - - - - - -
03/05:00am 26.2 S 9 17 1011.5 - - - - - - - - -
03/04:30am 26.7 S 10 16 1011.3 - - - - - - - - -
03/04:00am 26.8 S 12 19 1011.1 - - - - - - - - -
03/03:30am 26.8 S 11 19 1011.1 - - - - - - - - -
03/03:00am 26.9 S 11 20 1011.2 - - - - - - - - -
03/02:30am 26.8 S 11 18 1011.1 - - - - - - - - -
03/02:00am 27.0 S 11 18 1011.4 - - - - - - - - -
03/01:30am 27.1 S 12 18 1011.7 - - - - - - - - -
03/01:00am 27.1 S 11 18 1011.9 - - - - - - - - -
03/12:30am 27.0 S 12 19 1012.0 - - - - - - - - -
03/12:00am 27.2 S 11 17 1012.3 - - - - - - - - -
 
Date/Time
EST
Temp

°C
Wind Pressure Rain
since 9am
mm
Weather Cloud Vis
km
Sea
Height
m
Swell
Dir
 
Speed
knots
Gust
knots
hPa Trend Height
m
Period
s
Dir
02/11:30pm 27.2 S 11 19 1012.4 - - - - - - - - -
02/11:00pm 27.3 S 12 19 1012.3 - - - - - - - - -
02/10:30pm 27.3 S 11 19 1012.2 - - - - - - - - -
02/10:00pm 27.4 S 9 17 1011.8 - - - - - - - - -
02/09:30pm 27.5 S 6 13 1011.6 - - - - - - - - -
02/09:00pm 27.4 S 6 12 1011.6 - - - - - - - - -
02/08:30pm 27.5 S 5 15 1011.5 - - - - - - - - -
02/08:00pm 27.6 SSW 4 13 1011.0 - - - - - - - - -
02/07:30pm 27.5 WSW 3 10 1010.6 - - - - - - - - -
02/07:00pm 27.5 SW 3 9 1010.6 - - - - - - - - -
02/06:30pm 27.8 W 4 11 1010.1 - - - - - - - - -
02/06:00pm 27.9 WSW 4 14 1009.8 - - - - - - - - -
02/05:30pm 28.0 WSW 4 10 1009.5 - - - - - - - - -
02/05:00pm 28.3 W 4 11 1009.2 - - - - - - - - -
02/04:30pm 28.3 SW 5 13 1008.6 - - - - - - - - -
02/04:00pm 28.6 SE 4 10 1008.1 - - - - - - - - -
02/03:30pm 28.7 E 5 13 1008.2 - - - - - - - - -
02/03:00pm 28.9 ENE 6 14 1008.2 - - - - - - - - -
02/02:30pm 29.3 ENE 5 13 1008.4 - - - - - - - - -
02/02:00pm 29.1 W 3 9 1008.7 - - - - - - - - -
02/01:30pm 29.1 WSW 2 8 1009.2 - - - - - - - - -
02/01:00pm 28.7 W 3 8 1009.6 - - - - - - - - -
02/12:30pm 29.3 SSW 2 6 1009.9 - - - - - - - - -
02/12:00pm 29.1 S 4 7 1010.0 - - - - - - - - -
02/11:30am 28.4 S 6 11 1010.4 - - - - - - - - -
02/11:00am 27.9 S 6 9 1010.6 - - - - - - - - -
02/10:30am 27.5 S 6 11 1010.9 - - - - - - - - -
02/10:00am 27.3 S 6 10 1011.0 - - - - - - - - -
02/09:30am 27.3 S 5 9 1011.0 - - - - - - - - -
02/09:00am 27.5 S 3 6 1011.0 - - - - - - - - -
02/08:30am 27.1 S 4 8 1011.1 - - - - - - - - -
02/08:00am 27.0 SSW 3 5 1010.7 - - - - - - - - -
02/07:30am 26.3 SSW 3 5 1010.5 - - - - - - - - -
02/07:00am 25.3 S 3 5 1010.2 - - - - - - - - -
02/06:30am 24.8 S 3 4 1009.6 - - - - - - - - -
02/06:00am 24.8 S 3 4 1009.2 - - - - - - - - -
02/05:30am 25.6 S 1 2 1008.9 - - - - - - - - -
02/05:00am 25.7 WSW 2 3 1008.5 - - - - - - - - -
02/04:30am 25.8 WSW 2 4 1008.2 - - - - - - - - -
02/04:00am 26.1 WNW 2 6 1008.1 - - - - - - - - -
02/03:30am 26.9 NNE 5 8 1008.0 - - - - - - - - -
02/03:00am 26.9 NE 7 10 1008.0 - - - - - - - - -
02/02:30am 27.0 NE 6 9 1008.2 - - - - - - - - -
02/02:00am 27.0 NE 8 11 1008.3 - - - - - - - - -
02/01:30am 27.1 NNE 8 13 1008.6 - - - - - - - - -
02/01:00am 27.1 NE 7 12 1009.0 - - - - - - - - -
02/12:30am 27.2 NE 7 10 1009.1 - - - - - - - - -
02/12:00am 27.2 ENE 6 9 1009.4 - - - - - - - - -
 
Date/Time
EST
Temp

°C
Wind Pressure Rain
since 9am
mm
Weather Cloud Vis
km
Sea
Height
m
Swell
Dir
 
Speed
knots
Gust
knots
hPa Trend Height
m
Period
s
Dir
01/11:30pm 27.2 NE 9 11 1009.4 - - - - - - - - -
01/11:00pm 27.3 NE 9 12 1009.4 - - - - - - - - -
01/10:30pm 27.5 ENE 6 11 1009.6 - - - - - - - - -
01/10:00pm 27.5 ENE 6 10 1009.6 - - - - - - - - -
01/09:30pm 27.5 NE 8 10 1009.5 - - - - - - - - -
01/09:00pm 27.6 NE 9 12 1009.1 - - - - - - - - -
01/08:30pm 27.6 ENE 9 11 1008.9 - - - - - - - - -
01/08:00pm 27.7 ENE 7 13 1008.4 - - - - - - - - -
01/07:30pm 27.8 ENE 7 11 1008.2 - - - - - - - - -
01/07:00pm 27.8 ENE 6 11 1007.9 - - - - - - - - -
01/06:30pm 27.9 ENE 7 12 1007.8 - - - - - - - - -
01/06:00pm 28.1 ENE 5 9 1007.5 - - - - - - - - -
01/05:30pm 28.3 ENE 5 12 1007.3 - - - - - - - - -
01/05:00pm 28.7 E 4 13 1007.2 - - - - - - - - -
01/04:30pm 28.5 E 4 10 1007.0 - - - - - - - - -
01/04:00pm 28.7 ENE 5 14 1006.9 - - - - - - - - -
01/03:30pm 28.7 ENE 4 13 1006.9 - - - - - - - - -
01/03:00pm 28.7 E 3 10 1007.0 - - - - - - - - -
01/02:30pm 28.9 ENE 3 9 1007.2 - - - - - - - - -
01/02:00pm 29.1 NNE 2 9 1007.6 - - - - - - - - -
01/01:30pm 28.4 ENE 5 11 1007.9 - - - - - - - - -
01/01:00pm 29.1 ENE 2 9 1008.3 - - - - - - - - -
01/12:30pm 28.8 ENE 4 9 1008.8 - - - - - - - - -
01/12:00pm 28.8 WNW 2 6 1009.1 - - - - - - - - -
01/11:30am 28.4 SSE 3 7 1009.6 - - - - - - - - -
01/11:00am 28.5 E 2 5 1010.1 - - - - - - - - -
01/10:30am 27.7 ESE 2 7 1010.4 - - - - - - - - -
01/10:00am 27.3 S 4 7 1010.3 - - - - - - - - -
01/09:30am 27.8 SSE 2 5 1010.2 - - - - - - - - -
01/09:00am 27.9 ENE 2 5 1010.1 - - - - - - - - -
01/08:30am 27.5 SW 2 5 1010.0 - - - - - - - - -
01/08:00am 27.2 WSW 1 4 1009.7 - - - - - - - - -
01/07:30am 26.8 S 2 5 1009.3 - - - - - - - - -
01/07:00am 26.6 S 2 7 1009.1 - - - - - - - - -
01/06:30am 26.5 SSE 2 5 1008.6 - - - - - - - - -
01/06:00am 26.5 S 1 4 1008.4 - - - - - - - - -
01/05:30am 26.6 W 2 5 1008.3 - - - - - - - - -
01/05:00am 26.5 WNW 2 5 1008.0 - - - - - - - - -
01/04:30am 26.5 WSW 3 7 1007.7 - - - - - - - - -
01/04:00am 26.8 E 4 9 1007.7 - - - - - - - - -
01/03:30am 26.7 W 3 6 1007.6 - - - - - - - - -
01/03:00am 26.8 E 3 7 1007.9 - - - - - - - - -
01/02:30am 26.7 SSE 2 3 1008.2 - - - - - - - - -
01/02:00am 26.5 S 2 6 1008.3 - - - - - - - - -
01/01:30am 26.7 SW 2 5 1008.7 - - - - - - - - -
01/01:00am 26.8 W 3 7 1008.9 - - - - - - - - -
01/12:30am 26.9 SSW 3 9 1008.9 - - - - - - - - -
01/12:00am 26.9 ESE 3 9 1009.2 - - - - - - - - -
 
Date/Time
EST
Temp

°C
Wind Pressure Rain
since 9am
mm
Weather Cloud Vis
km
Sea
Height
m
Swell
Dir
 
Speed
knots
Gust
knots
hPa Trend Height
m
Period
s
Dir
28/11:30pm 27.0 E 5 12 1009.4 - - - - - - - - -
28/11:00pm 27.1 E 4 11 1009.5 - - - - - - - - -
28/10:30pm 27.1 E 4 12 1009.7 - - - - - - - - -
28/10:00pm 27.2 E 4 12 1009.8 - - - - - - - - -
28/09:30pm 27.3 E 4 13 1009.7 - - - - - - - - -
28/09:00pm 27.3 E 4 12 1009.6 - - - - - - - - -
28/08:30pm 27.2 E 4 15 1009.3 - - - - - - - - -
28/08:00pm 27.3 ENE 4 15 1008.9 - - - - - - - - -
28/07:30pm 27.3 SE 4 12 1008.6 - - - - - - - - -
28/07:00pm 27.3 WSW 4 11 1008.2 - - - - - - - - -
28/06:30pm 27.6 SW 3 9 1007.9 - - - - - - - - -
28/06:00pm 27.8 S 4 11 1007.7 - - - - - - - - -
28/05:30pm 28.2 W 3 10 1007.3 - - - - - - - - -
28/05:00pm 28.1 E 4 12 1007.2 - - - - - - - - -
28/04:30pm 28.5 ENE 4 11 1007.1 - - - - - - - - -
28/04:00pm 28.6 E 3 10 1006.9 - - - - - - - - -
28/03:30pm 28.9 ESE 3 11 1007.0 - - - - - - - - -
28/03:00pm 28.7 E 4 11 1007.0 - - - - - - - - -
28/02:30pm 28.4 ENE 3 12 1007.3 - - - - - - - - -
28/02:00pm 29.0 ENE 5 11 1007.5 - - - - - - - - -
28/01:30pm 28.9 ENE 3 9 1007.7 - - - - - - - - -

Other Formats:

Comma delimited format used in spreadsheet applications
http://www.bom.gov.au/fwo/IDQ60701/IDQ60701.95298.axf

JavaScript Object Notation format (JSON) in row-major order
http://www.bom.gov.au/fwo/IDQ60701/IDQ60701.95298.json